sensor_id;sensor_type;location;lat;lon;timestamp;temperature;humidity
13978;DHT22;7063;49.260;8.636;2023-03-01T07:52:31;3.00;28.40
13978;DHT22;7063;49.260;8.636;2023-03-01T07:54:56;2.40;57.80
13978;DHT22;7063;49.260;8.636;2023-03-01T07:57:23;2.40;56.50
13978;DHT22;7063;49.260;8.636;2023-03-01T07:59:48;2.50;56.30
13978;DHT22;7063;49.260;8.636;2023-03-01T08:02:14;2.50;56.30
13978;DHT22;7063;49.260;8.636;2023-03-01T08:04:41;2.70;56.60
13978;DHT22;7063;49.260;8.636;2023-03-01T08:07:06;2.70;54.50
13978;DHT22;7063;49.260;8.636;2023-03-01T08:09:34;2.70;54.20
13978;DHT22;7063;49.260;8.636;2023-03-01T08:12:01;2.80;53.40
13978;DHT22;7063;49.260;8.636;2023-03-01T08:14:26;2.90;51.90
13978;DHT22;7063;49.260;8.636;2023-03-01T08:16:52;2.80;51.90
13978;DHT22;7063;49.260;8.636;2023-03-01T08:19:18;2.80;51.10
13978;DHT22;7063;49.260;8.636;2023-03-01T08:21:43;3.10;50.30
13978;DHT22;7063;49.260;8.636;2023-03-01T08:24:09;3.30;49.60
13978;DHT22;7063;49.260;8.636;2023-03-01T08:26:35;3.20;49.30
13978;DHT22;7063;49.260;8.636;2023-03-01T08:29:01;3.30;48.90
13978;DHT22;7063;49.260;8.636;2023-03-01T08:31:36;3.20;47.80
13978;DHT22;7063;49.260;8.636;2023-03-01T08:34:04;3.40;47.30
13978;DHT22;7063;49.260;8.636;2023-03-01T08:36:34;3.60;45.80
13978;DHT22;7063;49.260;8.636;2023-03-01T08:39:00;3.50;45.40
13978;DHT22;7063;49.260;8.636;2023-03-01T08:41:26;3.60;44.80
13978;DHT22;7063;49.260;8.636;2023-03-01T08:43:52;3.70;44.10
13978;DHT22;7063;49.260;8.636;2023-03-01T08:46:27;3.50;44.00
13978;DHT22;7063;49.260;8.636;2023-03-01T08:48:53;3.70;44.60
13978;DHT22;7063;49.260;8.636;2023-03-01T08:51:19;3.70;42.40
13978;DHT22;7063;49.260;8.636;2023-03-01T08:53:46;3.80;42.30
13978;DHT22;7063;49.260;8.636;2023-03-01T08:56:12;3.90;42.10
13978;DHT22;7063;49.260;8.636;2023-03-01T08:58:38;4.10;40.70
13978;DHT22;7063;49.260;8.636;2023-03-01T09:01:09;4.30;40.60
13978;DHT22;7063;49.260;8.636;2023-03-01T10:53:24;4.30;39.00
13978;DHT22;7063;49.260;8.636;2023-03-01T10:58:26;6.50;23.40
13978;DHT22;7063;49.260;8.636;2023-03-01T11:00:57;6.40;22.70
13978;DHT22;7063;49.260;8.636;2023-03-01T11:03:29;6.50;23.30
13978;DHT22;7063;49.260;8.636;2023-03-01T11:06:01;6.60;22.30
13978;DHT22;7063;49.260;8.636;2023-03-01T11:11:13;6.60;22.10
13978;DHT22;7063;49.260;8.636;2023-03-01T12:10:33;6.60;21.80
13978;DHT22;7063;49.260;8.636;2023-03-01T12:22:30;7.50;16.90
13978;DHT22;7063;49.260;8.636;2023-03-01T12:33:40;7.90;16.10
13978;DHT22;7063;49.260;8.636;2023-03-01T12:36:26;7.80;15.70
13978;DHT22;7063;49.260;8.636;2023-03-01T12:39:03;8.00;14.60
13978;DHT22;7063;49.260;8.636;2023-03-01T12:41:51;7.80;14.90
13978;DHT22;7063;49.260;8.636;2023-03-01T12:49:49;7.80;14.50
13978;DHT22;7063;49.260;8.636;2023-03-01T12:52:42;8.00;15.50
13978;DHT22;7063;49.260;8.636;2023-03-01T12:58:00;8.10;13.90
13978;DHT22;7063;49.260;8.636;2023-03-01T13:00:41;8.20;14.20
13978;DHT22;7063;49.260;8.636;2023-03-01T13:03:23;8.20;13.80
13978;DHT22;7063;49.260;8.636;2023-03-01T13:11:25;8.20;12.60
13978;DHT22;7063;49.260;8.636;2023-03-01T13:14:35;8.10;12.70
13978;DHT22;7063;49.260;8.636;2023-03-01T13:19:16;8.30;12.70
13978;DHT22;7063;49.260;8.636;2023-03-01T13:21:45;8.20;13.00
13978;DHT22;7063;49.260;8.636;2023-03-01T13:24:40;8.50;13.00
13978;DHT22;7063;49.260;8.636;2023-03-01T13:37:45;9.20;13.20
13978;DHT22;7063;49.260;8.636;2023-03-01T13:42:48;9.00;12.00
13978;DHT22;7063;49.260;8.636;2023-03-01T13:48:02;9.00;10.90
13978;DHT22;7063;49.260;8.636;2023-03-01T13:50:38;9.10;11.70
13978;DHT22;7063;49.260;8.636;2023-03-01T13:53:11;9.30;11.10
13978;DHT22;7063;49.260;8.636;2023-03-01T13:55:50;9.40;10.20
13978;DHT22;7063;49.260;8.636;2023-03-01T14:01:05;9.10;9.70
13978;DHT22;7063;49.260;8.636;2023-03-01T14:03:33;9.30;9.80
13978;DHT22;7063;49.260;8.636;2023-03-01T14:06:03;9.10;9.40
13978;DHT22;7063;49.260;8.636;2023-03-01T14:08:32;9.10;9.40
13978;DHT22;7063;49.260;8.636;2023-03-01T14:11:29;9.20;9.10
13978;DHT22;7063;49.260;8.636;2023-03-01T14:19:29;9.20;9.40
13978;DHT22;7063;49.260;8.636;2023-03-01T14:22:23;9.30;9.10
13978;DHT22;7063;49.260;8.636;2023-03-01T14:24:55;9.50;9.00
13978;DHT22;7063;49.260;8.636;2023-03-01T14:27:27;9.70;9.00
13978;DHT22;7063;49.260;8.636;2023-03-01T14:30:00;9.70;7.90
13978;DHT22;7063;49.260;8.636;2023-03-01T14:32:28;9.60;7.80
13978;DHT22;7063;49.260;8.636;2023-03-01T14:34:54;9.60;7.80
13978;DHT22;7063;49.260;8.636;2023-03-01T14:37:31;9.40;8.10
13978;DHT22;7063;49.260;8.636;2023-03-01T14:39:59;9.20;8.70
13978;DHT22;7063;49.260;8.636;2023-03-01T14:42:28;9.20;9.10
13978;DHT22;7063;49.260;8.636;2023-03-01T14:44:55;9.20;9.00
13978;DHT22;7063;49.260;8.636;2023-03-01T14:47:32;9.60;9.40
13978;DHT22;7063;49.260;8.636;2023-03-01T14:52:40;9.40;8.80
13978;DHT22;7063;49.260;8.636;2023-03-01T14:55:20;9.40;8.90
13978;DHT22;7063;49.260;8.636;2023-03-01T14:57:50;9.40;8.40
13978;DHT22;7063;49.260;8.636;2023-03-01T15:00:25;9.30;8.70
13978;DHT22;7063;49.260;8.636;2023-03-01T15:02:52;9.30;8.60
13978;DHT22;7063;49.260;8.636;2023-03-01T15:05:29;9.30;8.70
13978;DHT22;7063;49.260;8.636;2023-03-01T15:07:57;9.40;8.40
13978;DHT22;7063;49.260;8.636;2023-03-01T15:10:26;9.10;8.10
13978;DHT22;7063;49.260;8.636;2023-03-01T15:12:52;9.00;8.40
13978;DHT22;7063;49.260;8.636;2023-03-01T15:15:43;9.00;8.60
13978;DHT22;7063;49.260;8.636;2023-03-01T15:20:42;9.30;9.40
13978;DHT22;7063;49.260;8.636;2023-03-01T15:25:44;9.20;8.20
13978;DHT22;7063;49.260;8.636;2023-03-01T15:28:18;9.10;8.40
13978;DHT22;7063;49.260;8.636;2023-03-01T15:30:44;9.10;8.60
13978;DHT22;7063;49.260;8.636;2023-03-01T15:33:37;9.00;8.70
13978;DHT22;7063;49.260;8.636;2023-03-01T15:36:49;9.20;8.80
13978;DHT22;7063;49.260;8.636;2023-03-01T15:38:55;9.00;8.20
13978;DHT22;7063;49.260;8.636;2023-03-01T15:41:30;8.90;8.90
13978;DHT22;7063;49.260;8.636;2023-03-01T15:44:00;8.90;8.50
13978;DHT22;7063;49.260;8.636;2023-03-01T15:46:34;9.00;8.90
13978;DHT22;7063;49.260;8.636;2023-03-01T15:51:52;8.90;8.10
13978;DHT22;7063;49.260;8.636;2023-03-01T15:54:21;8.80;8.20
13978;DHT22;7063;49.260;8.636;2023-03-01T15:56:47;8.80;8.60
13978;DHT22;7063;49.260;8.636;2023-03-01T15:59:13;8.70;8.50
13978;DHT22;7063;49.260;8.636;2023-03-01T16:01:40;8.70;8.50
13978;DHT22;7063;49.260;8.636;2023-03-01T16:04:05;8.70;8.80
13978;DHT22;7063;49.260;8.636;2023-03-01T16:06:31;8.70;9.00
13978;DHT22;7063;49.260;8.636;2023-03-01T16:08:57;8.60;8.80
13978;DHT22;7063;49.260;8.636;2023-03-01T16:11:22;8.60;9.00
13978;DHT22;7063;49.260;8.636;2023-03-01T16:13:48;8.50;9.00
13978;DHT22;7063;49.260;8.636;2023-03-01T16:16:16;8.50;9.20
13978;DHT22;7063;49.260;8.636;2023-03-01T16:18:47;8.40;9.00
13978;DHT22;7063;49.260;8.636;2023-03-01T16:21:24;8.40;9.20
13978;DHT22;7063;49.260;8.636;2023-03-01T16:23:51;8.30;9.50
13978;DHT22;7063;49.260;8.636;2023-03-01T16:26:17;8.30;9.90
13978;DHT22;7063;49.260;8.636;2023-03-01T16:28:44;8.20;9.80
13978;DHT22;7063;49.260;8.636;2023-03-01T16:31:11;8.10;10.00
13978;DHT22;7063;49.260;8.636;2023-03-01T16:33:37;8.20;9.50
13978;DHT22;7063;49.260;8.636;2023-03-01T16:36:10;8.10;9.70
13978;DHT22;7063;49.260;8.636;2023-03-01T16:38:37;8.00;10.00
13978;DHT22;7063;49.260;8.636;2023-03-01T16:41:03;8.00;10.20
13978;DHT22;7063;49.260;8.636;2023-03-01T16:43:29;7.90;10.70
13978;DHT22;7063;49.260;8.636;2023-03-01T16:45:55;7.80;11.10
13978;DHT22;7063;49.260;8.636;2023-03-01T16:48:21;7.80;11.30
13978;DHT22;7063;49.260;8.636;2023-03-01T16:50:59;7.70;11.90
13978;DHT22;7063;49.260;8.636;2023-03-01T16:53:26;7.70;12.00
13978;DHT22;7063;49.260;8.636;2023-03-01T16:55:58;7.60;12.30
13978;DHT22;7063;49.260;8.636;2023-03-01T16:58:24;7.60;12.60
13978;DHT22;7063;49.260;8.636;2023-03-01T17:00:53;7.50;12.90
13978;DHT22;7063;49.260;8.636;2023-03-01T17:03:20;7.40;13.00
13978;DHT22;7063;49.260;8.636;2023-03-01T17:05:47;7.40;13.20
13978;DHT22;7063;49.260;8.636;2023-03-01T17:08:13;7.30;13.50
13978;DHT22;7063;49.260;8.636;2023-03-01T17:10:38;7.30;14.30
13978;DHT22;7063;49.260;8.636;2023-03-01T17:13:04;7.30;13.90
13978;DHT22;7063;49.260;8.636;2023-03-01T17:15:29;7.20;14.00
13978;DHT22;7063;49.260;8.636;2023-03-01T17:17:55;7.20;14.30
13978;DHT22;7063;49.260;8.636;2023-03-01T17:20:20;7.10;14.70
13978;DHT22;7063;49.260;8.636;2023-03-01T17:22:46;6.90;15.10
13978;DHT22;7063;49.260;8.636;2023-03-01T17:25:12;6.80;15.40
13978;DHT22;7063;49.260;8.636;2023-03-01T17:27:38;6.90;15.50
13978;DHT22;7063;49.260;8.636;2023-03-01T17:30:06;6.90;15.60
13978;DHT22;7063;49.260;8.636;2023-03-01T17:32:32;6.80;15.70
13978;DHT22;7063;49.260;8.636;2023-03-01T17:34:57;6.70;15.90
13978;DHT22;7063;49.260;8.636;2023-03-01T17:37:23;6.60;16.70
13978;DHT22;7063;49.260;8.636;2023-03-01T17:39:49;6.50;17.30
13978;DHT22;7063;49.260;8.636;2023-03-01T17:42:14;6.40;17.30
13978;DHT22;7063;49.260;8.636;2023-03-01T17:44:40;6.30;17.60
13978;DHT22;7063;49.260;8.636;2023-03-01T17:47:05;6.20;18.00
13978;DHT22;7063;49.260;8.636;2023-03-01T17:49:31;6.10;18.40
13978;DHT22;7063;49.260;8.636;2023-03-01T17:51:57;6.00;18.90
13978;DHT22;7063;49.260;8.636;2023-03-01T17:54:23;5.80;19.20
13978;DHT22;7063;49.260;8.636;2023-03-01T17:56:49;5.70;20.10
13978;DHT22;7063;49.260;8.636;2023-03-01T17:59:15;5.50;20.80
13978;DHT22;7063;49.260;8.636;2023-03-01T18:01:44;5.40;21.40
13978;DHT22;7063;49.260;8.636;2023-03-01T18:04:10;5.20;22.00
13978;DHT22;7063;49.260;8.636;2023-03-01T18:06:36;5.20;22.80
13978;DHT22;7063;49.260;8.636;2023-03-01T18:09:01;5.00;23.40
13978;DHT22;7063;49.260;8.636;2023-03-01T18:11:27;4.90;24.40
